Flight Track Log - Related Links

Times and Time Zones

All times are in EDT time to prevent confusion due to time zone crossing. See the SWA378 flight status page for this flight to view local times or setup timezone preferences in your user account.

Time Position Orientation Groundspeed Altitude Reporting Facility
EDT Latitude Longitude Course Direction KTS MPH feet Rate Location/Type
Thu 18:38:31 33.6333 -84.3833 90° East 173 199 3,900  Level Atlanta TRACON
Thu 18:39:31 33.6333 -84.3000 90° East 254 292 7,000 2,743 Climbing Atlanta TRACON
Thu 18:42:01 33.6356 -84.0661 89° East 300 345 13,500 2,943 Climbing Atlanta Center
Thu 18:43:01 33.6419 -83.9539 86° East 320 368 17,300 2,900 Climbing Atlanta Center
Thu 18:44:01 33.6500 -83.8342 85° East 342 394 19,300 2,300 Climbing Atlanta Center
Thu 18:45:01 33.6581 -83.7069 86° East 375 432 21,900 1,850 Climbing Atlanta Center
Thu 18:46:01 33.6869 -83.5744 75° East 395 455 23,000 1,400 Climbing Atlanta Center
Thu 18:47:01 33.7386 -83.4492 64° Northeast 410 472 24,700 1,900 Climbing Atlanta Center
Thu 18:48:01 33.7942 -83.3114 64° Northeast 415 478 26,800 1,850 Climbing Atlanta Center
Thu 18:49:01 33.8517 -83.1783 62° Northeast 429 494 28,400 1,250 Climbing Atlanta Center
Thu 18:50:01 33.9217 -83.0475 57° Northeast 445 512 29,300 1,350 Climbing Atlanta Center
Thu 18:51:01 33.9872 -82.9064 61° Northeast 462 532 31,100 2,000 Climbing Atlanta Center
Thu 18:52:01 34.0528 -82.7703 60° Northeast 470 541 33,300 2,000 Climbing Atlanta Center
Thu 18:53:01 34.1203 -82.6361 59° Northeast 470 541 35,100 1,750 Climbing Atlanta Center
Thu 18:54:01 34.1853 -82.5019 60° Northeast 463 533 36,800 1,600 Climbing Atlanta Center
Thu 18:55:01 34.2483 -82.3650 61° Northeast 463 533 38,300 1,100 Climbing Atlanta Center
Thu 18:56:01 34.3111 -82.2306 60° Northeast 463 533 39,000 350 Climbing Atlanta Center
Thu 18:57:01 34.3758 -82.1008 59° Northeast 463 533 39,000  Level Atlanta Center
Thu 18:58:01 34.4364 -81.9661 61° Northeast 458 527 39,000  Level Atlanta Center
Thu 18:59:01 34.5008 -81.8333 59° Northeast 458 527 39,000  Level Atlanta Center
Thu 19:00:01 34.5631 -81.7006 60° Northeast 452 520 39,000  Level Atlanta Center
Thu 19:01:01 34.6292 -81.5650 59° Northeast 452 520 39,000  Level Atlanta Center
Thu 19:02:01 34.6889 -81.4292 62° Northeast 452 520 39,000  Level Atlanta Center
Thu 19:03:01 34.7506 -81.2908 61° Northeast 452 520 39,000  Level Atlanta Center
Thu 19:04:01 34.8144 -81.1547 60° Northeast 457 526 39,000  Level Atlanta Center
Thu 19:05:01 34.8778 -81.0208 60° Northeast 457 526 39,000  Level Atlanta Center
Thu 19:06:01 34.9431 -80.8764 61° Northeast 471 542 39,000  Level Atlanta Center
Thu 19:07:01 35.0083 -80.7347 61° Northeast 465 535 39,000  Level Atlanta Center
Thu 19:08:01 35.0692 -80.5978 61° Northeast 460 529 39,000  Level Atlanta Center
Thu 19:10:24 35.2175 -80.2675 61° Northeast 461 531 39,000 -209 Level Washington Center
Thu 19:11:22 35.2794 -80.1261 62° Northeast 461 531 38,300 -857 Descending Washington Center
Thu 19:12:23 35.3450 -79.9897 59° Northeast 461 531 37,300 -650 Descending Washington Center
Thu 19:13:22 35.4064 -79.8478 62° Northeast 461 531 37,000 -353 Descending Washington Center
Thu 19:14:22 35.4658 -79.7031 63° Northeast 466 536 36,600 -694 Descending Washington Center
Thu 19:15:23 35.5064 -79.5519 72° East 466 536 35,600 -942 Descending Washington Center
Thu 19:16:23 35.5489 -79.3983 71° East 466 536 34,700 -893 Descending Washington Center
Thu 19:17:24 35.5869 -79.2469 73° East 466 536 33,800 -942 Descending Washington Center
Thu 19:18:24 35.6272 -79.0878 73° East 473 544 32,800 -1,017 Descending Washington Center
Thu 19:19:22 35.6669 -78.9361 72° East 473 544 31,800 -958 Descending Washington Center
Thu 19:20:23 35.7111 -78.7769 71° East 473 544 30,900 -934 Descending Washington Center
Thu 19:21:24 35.7506 -78.6197 73° East 473 544 29,900 -908 Descending Washington Center
Thu 19:22:22 35.7853 -78.4803 73° East 473 544 29,100 -458 Descending Washington Center
Thu 19:23:22 35.8244 -78.3281 72° East 468 539 29,000 -50 Descending Washington Center
Thu 19:24:23 35.8633 -78.1731 73° East 468 539 29,000  Level Washington Center
Thu 19:25:24 35.9019 -78.0228 72° East 468 539 29,000  Level Washington Center
Thu 19:26:22 35.9383 -77.8700 74° East 463 533 29,000 -1,513 Level Washington Center
Thu 19:27:23 35.9744 -77.7222 73° East 457 526 26,000 -3,000 Descending Washington Center
Thu 19:28:24 36.0331 -77.5878 62° Northeast 446 513 22,900 -2,521 Descending Washington Center
Thu 19:29:22 36.0956 -77.4633 58° Northeast 433 498 21,000 -966 Descending Washington Center
Thu 19:30:22 36.1536 -77.3411 60° Northeast 417 480 21,000  Level Washington Center
Thu 19:31:23 36.2117 -77.2189 59° Northeast 410 472 21,000 -787 Level Washington Center
Thu 19:32:24 36.2675 -77.0964 60° Northeast 404 465 19,400 -2,041 Descending Washington Center
Thu 19:33:00 36.3083 -77.0122 59° Northeast 397 457 17,700 -2,690 Descending Washington Center
Thu 19:33:22 36.3211 -76.9789 65° Northeast 399 459 16,800 -2,618 Descending Washington Center
Thu 19:33:55 36.3575 -76.9047 59° Northeast 387 445 15,300 -2,262 Descending Washington Center
Thu 19:34:23 36.3767 -76.8689 56° Northeast 387 445 14,500 -2,250 Descending Washington Center
Thu 19:35:15 36.4444 -76.7822 46° Northeast 350 403 12,300 -1,912 Descending Washington Center
Thu 19:36:16 36.5036 -76.6953 50° Northeast 312 359 10,900 -1,377 Descending Washington Center
Thu 19:37:17 36.5564 -76.6236 47° Northeast 279 321 9,500 -1,034 Descending Washington Center
Thu 19:38:12 36.5922 -76.5647 53° Northeast 214 246 8,900 -1,096 Descending Washington Center
Thu 19:39:12 36.6325 -76.5056 50° Northeast 221 254 7,400 -1,461 Descending Washington Center
Thu 19:40:07 36.6683 -76.4542 49° Northeast 208 239 6,100 -1,200 Descending Washington Center
Thu 19:40:22 36.6747 -76.4439 52° Northeast 214 246 6,000 -1,111 Descending Washington Center
Thu 19:41:01 36.6978 -76.4131 47° Northeast 170 196 5,100 -1,400 Descending Washington Center
Thu 19:41:22 36.7083 -76.3950 54° Northeast 180 207 4,600 -1,180 Descending Washington Center
Thu 19:42:02 36.7253 -76.3719 47° Northeast 138 159 3,900 -1,279 Descending Washington Center
Thu 19:42:23 36.7336 -76.3564 56° Northeast 154 177 3,300 -1,400 Descending Washington Center
Thu 19:43:02 36.7525 -76.3386 37° Northeast 138 159 2,500 -886 Descending Washington Center
Thu 19:43:51 36.7733 -76.3206 35° Northeast 123 142 2,000 -495 Descending Washington Center
Thu 19:44:51 36.8008 -76.2922 40° Northeast 121 139 1,600 -400 Descending Washington Center

Login

Don't have an account? Register now (free) for customized features, flight alerts, and more!